Flight Track Log - Related Links

Times and Time Zones

All times are in EDT time to prevent confusion due to time zone crossing. See the DAL951 flight status page for this flight to view local times or setup timezone preferences in your user account.

Time Position Orientation Groundspeed Altitude Reporting Facility
EDT Latitude Longitude Course Direction KTS MPH feet Rate Location/Type
Fri 02:52:11 PM 45.5783 -122.5519 90° East 164 189 1,100  Level Seattle Center
Fri 02:52:23 PM 45.5767 -122.5433 105° East 157 181 1,400 1,164 Climbing Seattle Center
Fri 02:53:18 PM 45.5661 -122.4703 102° East 231 266 2,400 1,636 Climbing Seattle Center
Fri 02:53:40 PM 45.5600 -122.4303 102° East 248 285 3,500 2,643 Climbing Seattle Center
Fri 02:54:42 PM 45.5494 -122.3214 98° East 286 329 6,100 2,732 Climbing Seattle Center
Fri 02:55:00 PM 45.7134 -121.9151 66° East  Level FlightAware Approximate
Fri 02:55:43 PM 45.5975 -122.2025 60° Northeast 321 369 9,100  Level Seattle Center
Fri 02:56:00 PM 45.7334 -121.7287 90° East  Level FlightAware Approximate
Fri 02:56:44 PM 45.6483 -122.0858 58° Northeast 344 396 11,100  Level Seattle Center
Fri 02:57:00 PM 45.7334 -121.5363 90° East  Level FlightAware Approximate
Fri 02:57:45 PM 45.7047 -121.9558 58° Northeast 380 437 13,800  Level Seattle Center
Fri 02:58:46 PM 45.7469 -121.8144 67° East 392 451 16,100 2,361 Climbing Seattle Center
Fri 02:59:47 PM 45.7464 -121.6528 90° East 396 456 18,600 2,213 Climbing Seattle Center
Fri 03:00:48 PM 45.7447 -121.4933 91° East 397 457 20,600 1,756 Climbing Seattle Center
Fri 03:01:50 PM 45.7431 -121.3275 91° East 412 474 22,200 1,171 Climbing Seattle Center
Fri 03:02:51 PM 45.7406 -121.1475 91° East 444 511 23,000 1,082 Climbing Seattle Center
Fri 03:03:52 PM 45.7392 -120.9594 91° East 467 537 24,400 1,377 Climbing Seattle Center
Fri 03:04:53 PM 45.7369 -120.7678 91° East 475 547 25,800 1,328 Climbing Seattle Center
Fri 03:05:54 PM 45.7344 -120.5717 91° East 488 562 27,100 1,672 Climbing Seattle Center
Fri 03:06:55 PM 45.7317 -120.3758 91° East 493 567 29,200 1,770 Climbing Seattle Center
Fri 03:07:56 PM 45.7269 -120.1847 92° East 485 558 30,700 1,230 Climbing Seattle Center
Fri 03:08:57 PM 45.7242 -119.9911 91° East 485 558 31,700 984 Climbing Seattle Center
Fri 03:09:58 PM 45.7197 -119.7942 92° East 486 559 32,700 984 Climbing Seattle Center
Fri 03:10:59 PM 45.7156 -119.5500 91° East 505 581 33,700 836 Climbing Seattle Center
Fri 03:12:00 PM 45.7083 -119.3447 93° East 511 588 34,400 634 Climbing Seattle Center
Fri 03:13:02 PM 45.7028 -119.1369 92° East 518 596 35,000 293 Climbing Seattle Center
Fri 03:14:03 PM 45.7061 -118.9233 89° East 531 611 35,000  Level Seattle Center
Fri 03:15:04 PM 45.7186 -118.7075 85° East 539 620 35,000  Level Seattle Center
Fri 03:16:05 PM 45.7294 -118.5039 86° East 540 621 35,000  Level Seattle Center
Fri 03:17:06 PM 45.7419 -118.2911 85° East 540 621 35,000  Level Seattle Center
Fri 03:18:07 PM 45.7528 -118.0767 86° East 540 621 35,000 -49 Level Seattle Center
Fri 03:19:08 PM 45.7603 -117.8628 87° East 540 621 34,900 -49 Descending Seattle Center
Fri 03:20:09 PM 45.7703 -117.6522 86° East 539 620 34,900  Level Seattle Center
Fri 03:21:10 PM 45.7792 -117.3950 87° East 539 620 34,900  Level Seattle Center
Fri 03:22:11 PM 45.7875 -117.1822 87° East 540 621 34,900 49 Level Seattle Center
Fri 03:23:12 PM 45.7944 -116.9697 87° East 539 620 35,000  Climbing Seattle Center
Fri 03:24:13 PM 45.8028 -116.7567 87° East 539 620 34,900  Descending Seattle Center
Fri 03:25:14 PM 45.8086 -116.5433 88° East 539 620 35,000  Climbing Seattle Center
Fri 03:26:15 PM 45.8153 -116.3308 87° East 539 620 34,900  Descending Seattle Center
Fri 03:27:16 PM 45.8214 -116.1161 88° East 539 620 35,000  Climbing Seattle Center
Fri 03:28:17 PM 45.8269 -115.9025 88° East 539 620 34,900 -49 Descending Seattle Center
Fri 03:29:18 PM 45.8331 -115.6878 88° East 542 624 34,900 49 Level Seattle Center
Fri 03:30:19 PM 45.8381 -115.4586 88° East 542 624 35,000 49 Climbing Seattle Center
Fri 03:31:20 PM 45.8425 -115.2500 88° East 528 608 35,000  Level Seattle Center
Fri 03:31:52 PM 45.8456 -115.1242 88° East 530 610 35,000  Level Salt Lake Center
Fri 03:32:54 PM 45.8492 -114.9164 88° East 526 605 35,000  Level Salt Lake Center
Fri 03:33:56 PM 45.8528 -114.7069 89° East 525 604 35,000  Level Salt Lake Center
Fri 03:34:58 PM 45.8561 -114.4994 89° East 524 603 35,000  Level Salt Lake Center
Fri 03:36:00 PM 45.8578 -114.2819 89° East 523 602 35,000  Level Salt Lake Center
Fri 03:37:01 PM 45.8603 -114.0739 89° East 523 602 35,000  Level Salt Lake Center
Fri 03:38:03 PM 45.8628 -113.8639 89° East 526 605 35,000  Level Salt Lake Center
Fri 03:39:05 PM 45.8631 -113.6100 90° East 527 606 35,000  Level Salt Lake Center
Fri 03:40:07 PM 45.8636 -113.3950 90° East 528 608 35,000  Level Salt Lake Center
Fri 03:41:09 PM 45.8644 -113.1831 90° East 525 604 35,000  Level Salt Lake Center
Fri 03:42:11 PM 45.8669 -112.9542 89° East 524 603 35,000  Level Salt Lake Center
Fri 03:43:12 PM 45.8647 -112.7422 91° East 523 602 35,000  Level Salt Lake Center
Fri 03:44:14 PM 45.8650 -112.5294 90° East 524 603 35,000  Level Salt Lake Center
Fri 03:45:16 PM 45.8642 -112.3167 90° East 524 603 35,000  Level Salt Lake Center
Fri 03:46:18 PM 45.8628 -112.1061 90° East 523 602 35,000  Level Salt Lake Center
Fri 03:48:22 PM 45.8600 -111.6853 90° East 520 598 35,000  Level Salt Lake Center
Fri 03:49:23 PM 45.8581 -111.4772 91° East 514 592 35,000  Level Salt Lake Center
Fri 03:50:25 PM 45.8556 -111.2658 91° East 516 594 35,000  Level Salt Lake Center
Fri 03:51:27 PM 45.8517 -111.0558 91° East 509 586 35,000  Level Salt Lake Center
Fri 03:52:29 PM 45.8494 -110.8475 91° East 509 586 35,000  Level Salt Lake Center
Fri 03:53:30 PM 45.8458 -110.6406 91° East 508 585 35,000  Level Salt Lake Center
Fri 03:54:32 PM 45.8394 -110.4217 92° East 508 585 35,000  Level Salt Lake Center
Fri 03:55:34 PM 45.8356 -110.2203 92° East 507 583 35,000 145 Level Salt Lake Center
Fri 03:56:36 PM 45.8311 -110.0197 92° East 507 583 35,300 683 Climbing Salt Lake Center
Fri 03:57:37 PM 45.8258 -109.8189 92° East 505 581 36,400 829 Climbing Salt Lake Center
Fri 03:58:39 PM 45.8219 -109.6158 92° East 508 585 37,000 286 Climbing Salt Lake Center
Fri 03:59:43 PM 45.8150 -109.4169 93° East 504 580 37,000  Level Salt Lake Center
Fri 04:00:44 PM 45.8092 -109.2150 92° East 504 580 37,000  Level Salt Lake Center
Fri 04:01:46 PM 45.8008 -108.9753 93° East 503 579 37,000  Level Salt Lake Center
Fri 04:02:48 PM 45.7933 -108.7753 93° East 503 579 37,000  Level Salt Lake Center
Fri 04:03:49 PM 45.7869 -108.5747 93° East 503 579 37,000  Level Salt Lake Center
Fri 04:04:51 PM 45.7781 -108.3767 94° East 502 578 37,000  Level Salt Lake Center
Fri 04:05:53 PM 45.7700 -108.1742 93° East 504 580 37,000  Level Salt Lake Center
Fri 04:06:54 PM 45.7619 -107.9725 93° East 505 581 37,000  Level Salt Lake Center
Fri 04:07:56 PM 45.7522 -107.7717 94° East 505 581 37,000  Level Salt Lake Center
Fri 04:08:57 PM 45.7436 -107.5744 94° East 498 573 37,000  Level Salt Lake Center
Fri 04:09:59 PM 45.7322 -107.3339 94° East 502 578 37,000  Level Salt Lake Center
Fri 04:11:01 PM 45.7222 -107.1317 94° East 504 580 37,000  Level Salt Lake Center
Fri 04:12:02 PM 45.7100 -106.9272 95° East 509 586 37,000  Level Salt Lake Center
Fri 04:13:04 PM 45.6989 -106.7267 94° East 510 587 37,000  Level Salt Lake Center
Fri 04:14:05 PM 45.6883 -106.5275 94° East 509 586 37,000  Level Salt Lake Center
Fri 04:15:07 PM 45.6772 -106.3308 95° East 503 579 37,000  Level Salt Lake Center
Fri 04:16:08 PM 45.6686 -106.1389 94° East 492 566 37,000  Level Salt Lake Center
Fri 04:17:10 PM 45.6569 -105.9439 95° East 492 566 37,000  Level Salt Lake Center
Fri 04:18:12 PM 45.6450 -105.7503 95° East 492 566 37,000  Level Salt Lake Center
Fri 04:19:13 PM 45.6300 -105.5175 95° East 492 566 37,000  Level Salt Lake Center
Fri 04:20:15 PM 45.6169 -105.3236 95° East 492 566 37,000  Level Salt Lake Center
Fri 04:21:17 PM 45.6039 -105.1306 95° East 491 565 37,000  Level Salt Lake Center
Fri 04:22:18 PM 45.5908 -104.9356 95° East 491 565 37,000  Level Salt Lake Center
Fri 04:23:20 PM 45.5775 -104.7411 96° East 492 566 37,000  Level Salt Lake Center
Fri 04:24:21 PM 45.5625 -104.5483 96° East 492 566 37,000  Level Salt Lake Center
Fri 04:25:23 PM 45.5483 -104.3450 96° East 493 567 37,000 -48 Level Salt Lake Center
Fri 04:26:25 PM 45.5325 -104.1511 97° East 493 567 36,900  Descending Salt Lake Center
Fri 04:27:27 PM 45.5178 -103.9575 96° East 493 567 37,000  Climbing Salt Lake Center
Fri 04:28:28 PM 45.4986 -103.7250 97° East 494 568 36,900  Descending Salt Lake Center
Fri 04:29:30 PM 45.4831 -103.5311 96° East 494 568 37,000 48 Climbing Salt Lake Center
Fri 04:30:32 PM 45.4675 -103.3381 96° East 494 568 37,000  Level Salt Lake Center
Fri 04:31:33 PM 45.4500 -103.1408 97° East 498 573 37,000  Level Salt Lake Center
Fri 04:32:29 PM 45.4378 -102.9733 96° East 494 568 37,000  Level Minneapolis Center
Fri 04:33:31 PM 45.4194 -102.7794 98° East 494 568 37,000  Level Minneapolis Center
Fri 04:34:33 PM 45.3994 -102.5442 97° East 496 571 37,000  Level Minneapolis Center
Fri 04:35:35 PM 45.3808 -102.3481 98° East 497 572 37,000  Level Minneapolis Center
Fri 04:36:37 PM 45.3631 -102.1492 97° East 502 578 37,000  Level Minneapolis Center
Fri 04:37:39 PM 45.3436 -101.9525 98° East 504 580 37,000  Level Minneapolis Center
Fri 04:38:42 PM 45.3236 -101.7561 98° East 504 580 37,000  Level Minneapolis Center
Fri 04:39:44 PM 45.3003 -101.5203 98° East 504 580 37,000  Level Minneapolis Center
Fri 04:40:46 PM 45.2811 -101.3244 98° East 504 580 37,000  Level Minneapolis Center
Fri 04:41:48 PM 45.2603 -101.1292 99° East 504 580 37,000  Level Minneapolis Center
Fri 04:42:50 PM 45.2386 -100.9331 99° East 504 580 37,000  Level Minneapolis Center
Fri 04:43:52 PM 45.2175 -100.7389 99° East 504 580 37,000  Level Minneapolis Center
Fri 04:44:54 PM 45.1961 -100.5417 99° East 504 580 37,000  Level Minneapolis Center
Fri 04:45:56 PM 45.1703 -100.3075 99° East 504 580 37,000  Level Minneapolis Center
Fri 04:46:58 PM 45.1478 -100.1114 99° East 504 580 37,000  Level Minneapolis Center
Fri 04:48:00 PM 45.1247 -99.9156 99° East 493 567 37,000  Level Minneapolis Center
Fri 04:49:03 PM 45.1025 -99.7197 99° East 491 565 37,000  Level Minneapolis Center
Fri 04:50:05 PM 45.0800 -99.5283 99° East 491 565 37,000  Level Minneapolis Center
Fri 04:51:07 PM 45.0572 -99.3378 100° East 491 565 37,000  Level Minneapolis Center
Fri 04:52:09 PM 45.0336 -99.1469 100° East 492 566 37,000  Level Minneapolis Center
Fri 04:53:11 PM 45.0111 -98.9575 99° East 491 565 37,000  Level Minneapolis Center
Fri 04:54:13 PM 44.9875 -98.7661 100° East 492 566 37,000  Level Minneapolis Center
Fri 04:55:15 PM 44.9583 -98.5361 100° East 496 571 37,000  Level Minneapolis Center
Fri 04:56:17 PM 44.9350 -98.3608 101° East 496 571 37,000  Level Minneapolis Center
Fri 04:57:19 PM 44.9094 -98.1686 101° East 497 572 37,000  Level Minneapolis Center
Fri 04:58:21 PM 44.8814 -97.9361 100° East 498 573 37,000  Level Minneapolis Center
Fri 04:59:23 PM 44.8558 -97.7433 101° East 499 574 37,000  Level Minneapolis Center
Fri 05:00:25 PM 44.8292 -97.5525 101° East 499 574 37,000  Level Minneapolis Center
Fri 05:01:27 PM 44.8008 -97.3614 102° East 499 574 37,000  Level Minneapolis Center
Fri 05:02:29 PM 44.7731 -97.1675 101° East 502 578 37,000  Level Minneapolis Center
Fri 05:03:31 PM 44.7464 -96.9739 101° East 503 579 37,000  Level Minneapolis Center
Fri 05:04:33 PM 44.7178 -96.7808 102° East 504 580 37,000  Level Minneapolis Center
Fri 05:05:35 PM 44.6836 -96.5469 102° East 504 580 37,000  Level Minneapolis Center
Fri 05:06:37 PM 44.6553 -96.3517 101° East 506 582 37,000  Level Minneapolis Center
Fri 05:07:39 PM 44.6272 -96.1553 101° East 507 583 37,000  Level Minneapolis Center
Fri 05:08:41 PM 44.5969 -95.9600 102° East 507 583 37,000  Level Minneapolis Center
Fri 05:09:42 PM 44.5672 -95.7639 102° East 508 585 37,000  Level Minneapolis Center
Fri 05:10:44 PM 44.5372 -95.5686 102° East 508 585 37,000  Level Minneapolis Center
Fri 05:11:46 PM 44.5061 -95.3739 103° East 511 588 37,000  Level Minneapolis Center
Fri 05:12:48 PM 44.4750 -95.1783 103° East 511 588 37,000  Level Minneapolis Center
Fri 05:13:50 PM 44.4417 -94.9428 101° East 512 589 37,000  Level Minneapolis Center
Fri 05:14:52 PM 44.4167 -94.7458 100° East 512 589 37,000  Level Minneapolis Center
Fri 05:15:54 PM 44.3922 -94.5731 101° East 514 592 37,000  Level Minneapolis Center
Fri 05:16:56 PM 44.3589 -94.3400 101° East 514 592 37,000  Level Minneapolis Center
Fri 05:17:58 PM 44.3303 -94.1464 102° East 513 590 37,000  Level Minneapolis Center
Fri 05:19:00 PM 44.3036 -93.9531 101° East 513 590 37,000  Level Minneapolis Center
Fri 05:20:01 PM 44.2747 -93.7589 102° East 513 590 37,000  Level Minneapolis Center
Fri 05:21:03 PM 44.2461 -93.5650 102° East 513 590 37,000  Level Minneapolis Center
Fri 05:22:05 PM 44.2106 -93.3339 102° East 514 592 37,000  Level Minneapolis Center
Fri 05:23:07 PM 44.1819 -93.1406 102° East 514 592 37,000  Level Minneapolis Center
Fri 05:24:08 PM 44.1522 -92.9492 102° East 513 590 37,000  Level Minneapolis Center
Fri 05:25:10 PM 44.1222 -92.7572 102° East 513 590 37,000  Level Minneapolis Center
Fri 05:26:12 PM 44.0911 -92.5642 103° East 513 590 37,000  Level Minneapolis Center
Fri 05:27:14 PM 44.0611 -92.3711 102° East 513 590 37,000  Level Minneapolis Center
Fri 05:28:15 PM 44.0228 -92.1378 103° East 514 592 37,000  Level Minneapolis Center
Fri 05:29:17 PM 43.9903 -91.9417 103° East 518 596 37,000  Level Minneapolis Center
Fri 05:30:19 PM 43.9589 -91.7447 102° East 521 600 37,000  Level Minneapolis Center
Fri 05:31:20 PM 43.9258 -91.5522 103° East 522 601 37,000  Level Minneapolis Center
Fri 05:32:22 PM 43.8897 -91.3550 104° East 524 603 37,000  Level Minneapolis Center
Fri 05:33:24 PM 43.8497 -91.1594 106° East 526 605 37,000  Level Minneapolis Center
Fri 05:34:25 PM 43.8011 -90.9289 106° East 525 604 37,000  Level Minneapolis Center
Fri 05:35:27 PM 43.7619 -90.7342 106° East 525 604 37,000  Level Minneapolis Center
Fri 05:36:29 PM 43.7514 -90.5311 94° East 533 613 37,000  Level Minneapolis Center
Fri 05:37:31 PM 43.7383 -90.3261 95° East 534 615 37,000  Level Minneapolis Center
Fri 05:38:32 PM 43.7258 -90.1194 95° East 534 615 37,000  Level Minneapolis Center
Fri 05:39:34 PM 43.7122 -89.9136 95° East 536 617 37,000  Level Minneapolis Center
Fri 05:40:35 PM 43.6989 -89.7100 95° East 536 617 37,000  Level Minneapolis Center
Fri 05:41:37 PM 43.6850 -89.5050 95° East 536 617 37,000  Level Minneapolis Center
Fri 05:42:39 PM 43.6675 -89.2586 96° East 536 617 37,000  Level Minneapolis Center
Fri 05:43:40 PM 43.6536 -89.0525 95° East 536 617 37,000  Level Minneapolis Center
Fri 05:44:42 PM 43.6372 -88.8458 96° East 538 619 37,000  Level Minneapolis Center
Fri 05:45:43 PM 43.6208 -88.6378 96° East 538 619 37,000  Level Minneapolis Center
Fri 05:46:45 PM 43.6031 -88.4269 97° East 538 619 37,000  Level Minneapolis Center
Fri 05:47:46 PM 43.5867 -88.2175 96° East 538 619 37,000  Level Minneapolis Center
Fri 05:48:48 PM 43.5697 -88.0122 96° East 538 619 37,000 -242 Level Minneapolis Center
Fri 05:49:50 PM 43.5522 -87.8069 97° East 538 619 36,500 -732 Descending Minneapolis Center
Fri 05:50:51 PM 43.5353 -87.6047 97° East 537 618 35,500 -989 Descending Minneapolis Center
Fri 05:51:21 PM 43.5247 -87.4833 97° East 537 618 35,000 -978 Descending Chicago Center
Fri 05:52:23 PM 43.5056 -87.2792 97° East 543 625 34,000 -968 Descending Chicago Center
Fri 05:53:25 PM 43.4908 -87.0758 96° East 542 624 33,000 -484 Descending Chicago Center
Fri 05:54:27 PM 43.4711 -86.8722 98° East 541 623 33,000 -97 Level Chicago Center
Fri 05:55:29 PM 43.4511 -86.6672 98° East 540 621 32,800 -581 Descending Chicago Center
Fri 05:56:31 PM 43.4314 -86.4628 97° East 540 621 31,800 -864 Descending Chicago Center
Fri 05:57:34 PM 43.4067 -86.2175 98° East 540 621 31,000 -384 Descending Chicago Center
Fri 05:58:36 PM 43.3867 -86.0097 97° East 540 621 31,000 -387 Level Chicago Center
Fri 05:59:38 PM 43.3525 -85.8053 103° East 547 629 30,200 -1,403 Descending Chicago Center
Fri 06:00:40 PM 43.3156 -85.6008 104° East 547 629 28,100 -2,371 Descending Chicago Center
Fri 06:01:42 PM 43.2800 -85.4014 104° East 538 619 25,300 -2,468 Descending Chicago Center
Fri 06:02:44 PM 43.2450 -85.2106 104° East 520 598 23,000 -1,113 Descending Chicago Center
Fri 06:03:46 PM 43.2128 -85.0317 104° East 490 564 23,000  Level Chicago Center
Fri 06:04:49 PM 43.1794 -84.8525 104° East 484 557 23,000  Level Chicago Center
Fri 06:05:51 PM 43.1433 -84.6553 104° East 443 510 23,000 -387 Level Chicago Center
Fri 06:06:53 PM 43.1139 -84.5042 105° East 416 479 22,200 -1,161 Descending Chicago Center
Fri 06:07:55 PM 43.0797 -84.3622 108° East 399 459 20,600 -1,514 Descending Chicago Center
Fri 06:08:40 PM 43.0461 -84.2778 119° Southeast 380 437 19,500 -1,965 Descending Cleveland Center
Fri 06:09:48 PM 42.9839 -84.1178 118° Southeast 354 407 16,900 -1,887 Descending Cleveland Center
Fri 06:10:44 PM 42.9467 -84.0167 117° Southeast 348 400 15,600 -1,500 Descending Cleveland Center
Fri 06:10:56 PM 42.9339 -83.9875 121° Southeast 341 392 15,200 -1,452 Descending Cleveland Center
Fri 06:11:46 PM 42.9025 -83.9044 117° Southeast 338 389 14,100 -1,545 Descending Cleveland Center
Fri 06:12:02 PM 42.8856 -83.8631 119° Southeast 335 386 13,500 -1,606 Descending Cleveland Center
Fri 06:12:57 PM 42.8492 -83.7664 117° Southeast 324 373 12,200 -833 Descending Cleveland Center
Fri 06:13:50 PM 42.8011 -83.7133 141° Southeast 315 362 12,000 -197 Descending Cleveland Center
Fri 06:13:58 PM 42.7769 -83.7017 160° South 301 346 12,000  Level Cleveland Center
Fri 06:14:52 PM 42.7228 -83.6675 155° Southeast 309 356 12,000  Level Cleveland Center
Fri 06:14:59 PM 42.7011 -83.6536 155° Southeast 305 351 12,000  Level Cleveland Center
Fri 06:15:54 PM 42.6306 -83.6125 157° South 305 351 12,000  Level Cleveland Center
Fri 06:16:00 PM 42.6189 -83.6075 162° South 305 351 12,000  Level Cleveland Center
Fri 06:17:01 PM 42.5408 -83.5619 157° South 304 350 12,000  Level Cleveland Center
Fri 06:17:58 PM 42.4750 -83.5206 155° Southeast 305 351 12,000  Level Cleveland Center
Fri 06:18:02 PM 42.4650 -83.5142 155° Southeast 302 348 12,000  Level Cleveland Center
Fri 06:19:00 PM 42.3950 -83.4853 163° South 284 327 12,000  Level Cleveland Center
Fri 06:19:03 PM 42.3878 -83.4833 169° South 272 313 12,000 -95 Level Cleveland Center
Fri 06:20:03 PM 42.3239 -83.4694 171° South 260 299 11,900 -393 Descending Cleveland Center
Fri 06:20:04 PM 42.3156 -83.4672 169° South 245 282 11,600 -1,839 Descending Cleveland Center
Fri 06:21:05 PM 42.2483 -83.4689 181° South 244 281 10,000 -1,463 Descending Cleveland Center
Fri 06:22:07 PM 42.1969 -83.5044 207° Southwest 240 276 8,600 -984 Descending Cleveland Center
Fri 06:23:07 PM 42.1308 -83.5508 207° Southwest 238 274 8,000 -581 Descending Cleveland Center
Fri 06:23:09 PM 42.1364 -83.5464 31° Northeast 241 277 8,000  Level Cleveland Center
Fri 06:24:08 PM 42.0664 -83.5950 207° Southwest 242 278 8,000  Level Cleveland Center
Fri 06:24:11 PM 42.0753 -83.5892 26° Northeast 240 276 8,000  Level Cleveland Center
Fri 06:25:04 PM 42.0197 -83.6275 207° Southwest 216 249 8,000  Level Cleveland Center
Fri 06:25:13 PM 42.0092 -83.6356 210° Southwest 227 261 8,000  Level Cleveland Center
Fri 06:26:05 PM 41.9642 -83.6672 208° Southwest 218 251 8,000 -97 Level Cleveland Center
Fri 06:26:15 PM 41.9564 -83.6733 210° Southwest 218 251 7,900 -984 Descending Cleveland Center
Fri 06:27:06 PM 41.9086 -83.7069 208° Southwest 215 247 7,000 -871 Descending Cleveland Center
Fri 06:27:17 PM 41.9031 -83.7094 199° South 218 251 7,000  Level Cleveland Center
Fri 06:28:07 PM 41.8639 -83.6892 159° South 207 238 7,000  Level Cleveland Center
Fri 06:28:19 PM 41.8631 -83.6833 101° East 215 247 7,000  Level Cleveland Center
Fri 06:29:08 PM 41.8903 -83.6228 59° Northeast 199 229 7,000  Level Cleveland Center
Fri 06:29:21 PM 41.8914 -83.6208 52° Northeast 201 231 7,000 -269 Level Cleveland Center
Fri 06:30:15 PM 41.9381 -83.5764 35° Northeast 195 224 6,700 -286 Descending Cleveland Center
Fri 06:30:24 PM 41.9347 -83.5781 200° South 197 227 6,700 -1,091 Level Cleveland Center
Fri 06:31:10 PM 41.9822 -83.5464 26° Northeast 193 222 5,700 -1,258 Descending Cleveland Center
Fri 06:31:26 PM 41.9931 -83.5378 31° Northeast 197 227 5,400 -1,082 Descending Cleveland Center
Fri 06:32:11 PM 42.0292 -83.5108 29° Northeast 185 213 4,600 -968 Descending Cleveland Center
Fri 06:32:28 PM 42.0375 -83.5044 30° Northeast 191 220 4,400 -1,065 Descending Cleveland Center
Fri 06:33:13 PM 42.0736 -83.4778 29° Northeast 186 214 3,500 -968 Descending Cleveland Center
Fri 06:33:30 PM 42.0828 -83.4717 26° Northeast 190 219 3,400 -885 Descending Cleveland Center
Fri 06:34:14 PM 42.1203 -83.4450 28° Northeast 170 196 2,600 -968 Descending Cleveland Center
Fri 06:34:32 PM 42.1267 -83.4397 31° Northeast 188 216 2,400 -885 Descending Cleveland Center
Fri 06:35:15 PM 42.1581 -83.4167 29° Northeast 153 176 1,700 -871 Descending Cleveland Center
Fri 06:35:34 PM 42.1631 -83.4131 28° Northeast 168 193 1,500 -787 Descending Cleveland Center
Fri 06:36:16 PM 42.1961 -83.3883 29° Northeast 152 175 900 -774 Descending Cleveland Center
Fri 06:36:36 PM 42.1994 -83.3861 26° Northeast 156 180 700 -600 Descending Cleveland Center

Login

Don't have an account? Register now (free) for customized features, flight alerts, and more!